Terminal Aerodrome Forecast
Issued by NWS Knoxville/Tri Cities, TN

Home | Current Version | Previous Version | Text Only | Print | Product List | Glossary On
Versions: 1 2 3 4 5 6 7 8 9 10 11 12 13 14 15 16 17
000
FTUS44 KMRX 280520
TAFTRI
TAF
KTRI 280520Z 2806/2906 25005KT 4SM -RA BR VCTS SCT050CB BKN080
     FM280800 VRB03KT P6SM SCT025 BKN090
      TEMPO 2810/2814 BKN025
     FM281600 24010KT P6SM SCT040 BKN100
     FM290000 24006KT P6SM BKN100=

USA.gov is the U.S. government's official web portal to all federal, state and local government web resources and services.